Toyofujimaru No.2 — 7JDI — position and weather

sailwx.info

Track history (hours):
 
Tides and Currents Weather Stations Pressure Air Temp Water Temp Dewpoint Dewpoint Depression Visibility Wind Speed Wind Dir Waves Ship Positions

Toyofujimaru No.2

Last reported at 2017-Jan-18 10:33 UTC. Time now 2017-Jan-19 10:53 UTC.
Position N 35°07' E 139°45'.

Length 165 m; draft 6.2 m.

Type: Ship. MMSI: 432667000.

Date/timePositionNaut miles runAvg speedWind from/ knotsBaromVisibWave heightAir tempDewpointWater temp
2017-Jan-18 10:33N 35°07' E 139°45'1312.8
2017-Jan-18 09:33N 35°20' E 139°42'1110.9
2017-Jan-18 08:33N 35°30' E 139°46'1 0.6
2017-Jan-18 07:31N 35°30' E 139°45'0 0.0
2017-Jan-18 06:31N 35°30' E 139°45'0 0.0
2017-Jan-18 05:31N 35°30' E 139°45'0 0.0
2017-Jan-18 04:31N 35°30' E 139°45'1 0.8
2017-Jan-18 03:33N 35°30' E 139°44'8 8.0
2017-Jan-18 02:34N 35°23' E 139°39'0 0.1
2017-Jan-18 01:33N 35°23' E 139°39'0 0.0
2017-Jan-18 00:33N 35°23' E 139°39'0 0.0
2017-Jan-17 23:33N 35°23' E 139°39'0 0.0
2017-Jan-17 22:33N 35°23' E 139°39'3 3.5
2017-Jan-17 21:33N 35°21' E 139°42'1413.6
2017-Jan-17 20:33N 35°08' E 139°46'9 0.3
2017-Jan-16 12:12N 35°03' E 139°37'1218.5
2017-Jan-16 11:33N 35°12' E 139°46'1212.1
2017-Jan-16 10:33N 35°23' E 139°41'2 1.6
2017-Jan-16 09:32N 35°23' E 139°39'0 0.0
2017-Jan-16 08:32N 35°23' E 139°39'0 0.0
2017-Jan-16 07:32N 35°23' E 139°39'0 0.0
2017-Jan-16 06:32N 35°23' E 139°39'0 0.0
2017-Jan-16 05:32N 35°23' E 139°39'1 0.9
2017-Jan-16 04:33N 35°24' E 139°40'1212.2
2017-Jan-16 03:34N 35°13' E 139°47'2411.1
2017-Jan-16 01:24N 34°57' E 140°08'16 0.4
2017-Jan-14 13:04N 34°52' E 139°50'1119.5
2017-Jan-14 12:31N 35°01' E 139°43'1515.9
2017-Jan-14 11:33N 35°16' E 139°46'1312.7
2017-Jan-14 10:34N 35°28' E 139°49'3 3.3
2017-Jan-14 09:34N 35°30' E 139°45'0 0.0
2017-Jan-14 08:31N 35°30' E 139°45'0 0.0
2017-Jan-14 07:31N 35°30' E 139°45'0 0.0
2017-Jan-14 06:31N 35°30' E 139°45'0 0.0
2017-Jan-14 05:31N 35°30' E 139°45'4 3.6
2017-Jan-14 04:33N 35°27' E 139°43'5 5.1
2017-Jan-14 03:33N 35°23' E 139°39'0 0.0
2017-Jan-13 23:33N 35°23' E 139°39'0 0.0
2017-Jan-13 22:33N 35°23' E 139°39'5 5.2
2017-Jan-13 21:33N 35°20' E 139°43'1413.7
2017-Jan-13 20:33N 35°06' E 139°45'8 0.2
2017-Jan-12 10:29N 35°03' E 139°37'1414.6
2017-Jan-12 09:33N 35°14' E 139°46'1111.0
2017-Jan-12 08:34N 35°23' E 139°39'0 0.0
2017-Jan-12 07:31N 35°23' E 139°39'0 0.0
2017-Jan-12 06:31N 35°23' E 139°39'0 0.0
2017-Jan-12 05:31N 35°23' E 139°39'0 0.0
2017-Jan-12 04:31N 35°23' E 139°39'0 0.0
2017-Jan-12 03:31N 35°23' E 139°39'0 0.0
2017-Jan-12 02:31N 35°23' E 139°39'6 5.9
2017-Jan-12 01:33N 35°19' E 139°44'1414.1
2017-Jan-12 00:33N 35°05' E 139°45'4 0.1
2017-Jan-10 09:34N 35°02' E 139°42'1615.5
2017-Jan-10 08:33N 35°17' E 139°44'1312.9
2017-Jan-10 07:34N 35°30' E 139°48'2 1.8
2017-Jan-10 06:33N 35°30' E 139°46'0 0.0
2017-Jan-10 05:33N 35°30' E 139°46'4 3.5
2017-Jan-10 04:34N 35°29' E 139°42'6 5.7
2017-Jan-10 03:32N 35°23' E 139°39'0 0.0
2017-Jan-10 02:32N 35°23' E 139°39'0 0.0
2017-Jan-10 01:32N 35°23' E 139°39'0 0.0
2017-Jan-10 00:32N 35°23' E 139°39'0 0.0
2017-Jan-09 23:29N 35°23' E 139°39'0 0.0
2017-Jan-09 22:32N 35°23' E 139°39'3 3.3
2017-Jan-09 21:33N 35°21' E 139°42'1313.0
2017-Jan-09 20:33N 35°09' E 139°46'  
Track history (hours):
 
Tides and Currents Weather Stations Pressure Air Temp Water Temp Dewpoint Dewpoint Depression Visibility Wind Speed Wind Dir Waves Ship Positions

Toyofujimaru No.2

Last reported at 2017-Jan-18 10:33 UTC. Time now 2017-Jan-19 10:53 UTC.
Position N 35°07' E 139°45'.

Length 165 m; draft 6.2 m.

Type: Ship. MMSI: 432667000.

Date/timePositionNaut miles runAvg speedWind from/ knotsBaromVisibWave heightAir tempDewpointWater temp
2017-Jan-18 10:33N 35°07' E 139°45'1312.8
2017-Jan-18 09:33N 35°20' E 139°42'1110.9
2017-Jan-18 08:33N 35°30' E 139°46'1 0.6
2017-Jan-18 07:31N 35°30' E 139°45'0 0.0
2017-Jan-18 06:31N 35°30' E 139°45'0 0.0
2017-Jan-18 05:31N 35°30' E 139°45'0 0.0
2017-Jan-18 04:31N 35°30' E 139°45'1 0.8
2017-Jan-18 03:33N 35°30' E 139°44'8 8.0
2017-Jan-18 02:34N 35°23' E 139°39'0 0.1
2017-Jan-18 01:33N 35°23' E 139°39'0 0.0
2017-Jan-18 00:33N 35°23' E 139°39'0 0.0
2017-Jan-17 23:33N 35°23' E 139°39'0 0.0
2017-Jan-17 22:33N 35°23' E 139°39'3 3.5
2017-Jan-17 21:33N 35°21' E 139°42'1413.6
2017-Jan-17 20:33N 35°08' E 139°46'9 0.3
2017-Jan-16 12:12N 35°03' E 139°37'1218.5
2017-Jan-16 11:33N 35°12' E 139°46'1212.1
2017-Jan-16 10:33N 35°23' E 139°41'2 1.6
2017-Jan-16 09:32N 35°23' E 139°39'0 0.0
2017-Jan-16 08:32N 35°23' E 139°39'0 0.0
2017-Jan-16 07:32N 35°23' E 139°39'0 0.0
2017-Jan-16 06:32N 35°23' E 139°39'0 0.0
2017-Jan-16 05:32N 35°23' E 139°39'1 0.9
2017-Jan-16 04:33N 35°24' E 139°40'1212.2
2017-Jan-16 03:34N 35°13' E 139°47'2411.1
2017-Jan-16 01:24N 34°57' E 140°08'16 0.4
2017-Jan-14 13:04N 34°52' E 139°50'1119.5
2017-Jan-14 12:31N 35°01' E 139°43'1515.9
2017-Jan-14 11:33N 35°16' E 139°46'1312.7
2017-Jan-14 10:34N 35°28' E 139°49'3 3.3
2017-Jan-14 09:34N 35°30' E 139°45'0 0.0
2017-Jan-14 08:31N 35°30' E 139°45'0 0.0
2017-Jan-14 07:31N 35°30' E 139°45'0 0.0
2017-Jan-14 06:31N 35°30' E 139°45'0 0.0
2017-Jan-14 05:31N 35°30' E 139°45'4 3.6
2017-Jan-14 04:33N 35°27' E 139°43'5 5.1
2017-Jan-14 03:33N 35°23' E 139°39'0 0.0
2017-Jan-13 23:33N 35°23' E 139°39'0 0.0
2017-Jan-13 22:33N 35°23' E 139°39'5 5.2
2017-Jan-13 21:33N 35°20' E 139°43'1413.7
2017-Jan-13 20:33N 35°06' E 139°45'8 0.2
2017-Jan-12 10:29N 35°03' E 139°37'1414.6
2017-Jan-12 09:33N 35°14' E 139°46'1111.0
2017-Jan-12 08:34N 35°23' E 139°39'0 0.0
2017-Jan-12 07:31N 35°23' E 139°39'0 0.0
2017-Jan-12 06:31N 35°23' E 139°39'0 0.0
2017-Jan-12 05:31N 35°23' E 139°39'0 0.0
2017-Jan-12 04:31N 35°23' E 139°39'0 0.0
2017-Jan-12 03:31N 35°23' E 139°39'0 0.0
2017-Jan-12 02:31N 35°23' E 139°39'6 5.9
2017-Jan-12 01:33N 35°19' E 139°44'1414.1
2017-Jan-12 00:33N 35°05' E 139°45'4 0.1
2017-Jan-10 09:34N 35°02' E 139°42'1615.5
2017-Jan-10 08:33N 35°17' E 139°44'1312.9
2017-Jan-10 07:34N 35°30' E 139°48'2 1.8
2017-Jan-10 06:33N 35°30' E 139°46'0 0.0
2017-Jan-10 05:33N 35°30' E 139°46'4 3.5
2017-Jan-10 04:34N 35°29' E 139°42'6 5.7
2017-Jan-10 03:32N 35°23' E 139°39'0 0.0
2017-Jan-10 02:32N 35°23' E 139°39'0 0.0
2017-Jan-10 01:32N 35°23' E 139°39'0 0.0
2017-Jan-10 00:32N 35°23' E 139°39'0 0.0
2017-Jan-09 23:29N 35°23' E 139°39'0 0.0
2017-Jan-09 22:32N 35°23' E 139°39'3 3.3
2017-Jan-09 21:33N 35°21' E 139°42'1313.0
2017-Jan-09 20:33N 35°09' E 139°46'  

Dump ship's entire track history